Disclaimer

Please do not use the information listed here in-flight or in-navigation, as they are not provided to us by the airports but are provided by volunteers, so they might be outdated.

Search


Regions


Airport information page

Radio informations:
Tower (TWR) - 122.1 MHz
MUNCHEN RADAR - 136.525 MHz
MUNCHEN INFO - 120.65 MHz

Airport informations:
Latitude: 48° 42' 56.40" N
Longitude: 011° 32' 02.40" E
Elevation: 1202 feet - 366 meters
Operating hours: Remarks
Operating agency: Military-civil joint use airport
Timezone: UTC+1(+2DT) - Last Sunday in March to last Sunday in October
Fuel: JP-4, Wide cut turbine fuel MIL Spec T-5624

Runway information:
07R/25L - 9646 x 197 feet< - >2940 x 60 meters
07L/25R - 8002 x 98 feet< - >2439 x 30 meters

Recent METARs:
ETSI 170720Z AUTO 07009KT 8000 // ////// 02/M02 Q1027 ///
ETSI 170720Z AUTO 07009KT 8000 // ////// 02/M02 Q1027 ///
ETSI 170820Z AUTO 07010KT 9000 // ////// 04/M02 Q1027 ///

Airport on the map: